Pleasant Valley, California
Current Conditions -  °F | °C
As of 5:35 AM on Wednesday 26 Nov 2014 (Local Time) from KPVF Reporting Station
Clear Clear  
Wind Chill: 54°   Ceiling: Unl
Heat Index: 54°   Visibility: 10mi
Dew Point: 34°   Wind: 0mph
Humidity: 47%   Direction: NA
Pressure: 30.35"   Gusts: NA
Location:  38.7308°N, 120.774°W
Report Text: KPVF 261335Z AUTO 00000KT 10SM CLR 12/01 A3035 RMK AO1
Loading
Personal Weather Stations






























Interactive Weather Map New forecast layout! Learn more

10-Day Weather Forecast

Advertisements
Track Severe Weather on mobile